sensor_id;sensor_type;location;lat;lon;timestamp;P1;durP1;ratioP1;P2;durP2;ratioP2
16735;SDS011;17990;49.548;9.730;2023-07-09T00:01:10;7.63;;;4.50;;
16735;SDS011;17990;49.548;9.730;2023-07-09T00:03:42;6.47;;;3.87;;
16735;SDS011;17990;49.548;9.730;2023-07-09T00:06:09;5.17;;;3.90;;
16735;SDS011;17990;49.548;9.730;2023-07-09T00:08:37;5.97;;;3.90;;
16735;SDS011;17990;49.548;9.730;2023-07-09T00:11:10;7.87;;;3.83;;
16735;SDS011;17990;49.548;9.730;2023-07-09T00:13:37;6.03;;;3.90;;
16735;SDS011;17990;49.548;9.730;2023-07-09T00:16:09;7.00;;;4.10;;
16735;SDS011;17990;49.548;9.730;2023-07-09T00:18:39;5.07;;;3.67;;
16735;SDS011;17990;49.548;9.730;2023-07-09T00:21:06;6.07;;;3.70;;
16735;SDS011;17990;49.548;9.730;2023-07-09T00:23:32;5.50;;;3.63;;
16735;SDS011;17990;49.548;9.730;2023-07-09T00:26:00;7.50;;;4.13;;
16735;SDS011;17990;49.548;9.730;2023-07-09T00:28:28;10.13;;;4.00;;
16735;SDS011;17990;49.548;9.730;2023-07-09T00:30:56;6.60;;;4.23;;
16735;SDS011;17990;49.548;9.730;2023-07-09T00:33:23;6.67;;;3.87;;
16735;SDS011;17990;49.548;9.730;2023-07-09T00:35:56;8.07;;;4.13;;
16735;SDS011;17990;49.548;9.730;2023-07-09T00:38:24;4.40;;;3.30;;
16735;SDS011;17990;49.548;9.730;2023-07-09T00:40:59;5.80;;;3.77;;
16735;SDS011;17990;49.548;9.730;2023-07-09T00:43:30;6.23;;;3.90;;
16735;SDS011;17990;49.548;9.730;2023-07-09T00:46:16;8.57;;;3.60;;
16735;SDS011;17990;49.548;9.730;2023-07-09T00:49:20;9.10;;;4.57;;
16735;SDS011;17990;49.548;9.730;2023-07-09T00:51:55;9.30;;;3.67;;
16735;SDS011;17990;49.548;9.730;2023-07-09T00:54:26;5.47;;;3.53;;
16735;SDS011;17990;49.548;9.730;2023-07-09T00:56:58;5.40;;;3.60;;
16735;SDS011;17990;49.548;9.730;2023-07-09T00:59:30;5.70;;;3.43;;
16735;SDS011;17990;49.548;9.730;2023-07-09T01:01:59;10.40;;;3.73;;
16735;SDS011;17990;49.548;9.730;2023-07-09T01:04:27;4.97;;;3.60;;
16735;SDS011;17990;49.548;9.730;2023-07-09T01:06:55;4.97;;;3.60;;
16735;SDS011;17990;49.548;9.730;2023-07-09T01:09:23;6.07;;;3.97;;
16735;SDS011;17990;49.548;9.730;2023-07-09T01:11:51;5.93;;;3.80;;
16735;SDS011;17990;49.548;9.730;2023-07-09T01:14:21;4.87;;;4.00;;
16735;SDS011;17990;49.548;9.730;2023-07-09T01:16:52;6.87;;;3.83;;
16735;SDS011;17990;49.548;9.730;2023-07-09T01:19:24;5.20;;;3.67;;
16735;SDS011;17990;49.548;9.730;2023-07-09T01:21:56;4.93;;;3.37;;
16735;SDS011;17990;49.548;9.730;2023-07-09T01:27:22;9.40;;;3.87;;
16735;SDS011;17990;49.548;9.730;2023-07-09T01:29:53;6.70;;;4.00;;
16735;SDS011;17990;49.548;9.730;2023-07-09T01:32:21;6.80;;;3.73;;
16735;SDS011;17990;49.548;9.730;2023-07-09T01:34:49;7.73;;;3.80;;
16735;SDS011;17990;49.548;9.730;2023-07-09T01:37:22;5.53;;;3.60;;
16735;SDS011;17990;49.548;9.730;2023-07-09T01:39:52;7.10;;;3.80;;
16735;SDS011;17990;49.548;9.730;2023-07-09T01:42:21;5.10;;;3.80;;
16735;SDS011;17990;49.548;9.730;2023-07-09T01:44:50;8.60;;;3.70;;
16735;SDS011;17990;49.548;9.730;2023-07-09T01:47:19;5.80;;;3.63;;
16735;SDS011;17990;49.548;9.730;2023-07-09T01:49:48;8.63;;;3.97;;
16735;SDS011;17990;49.548;9.730;2023-07-09T01:52:15;6.60;;;3.57;;
16735;SDS011;17990;49.548;9.730;2023-07-09T01:54:45;8.80;;;4.30;;
16735;SDS011;17990;49.548;9.730;2023-07-09T01:57:15;5.50;;;3.37;;
16735;SDS011;17990;49.548;9.730;2023-07-09T01:59:48;7.27;;;3.40;;
16735;SDS011;17990;49.548;9.730;2023-07-09T02:02:16;6.53;;;3.50;;
16735;SDS011;17990;49.548;9.730;2023-07-09T02:04:48;6.33;;;3.70;;
16735;SDS011;17990;49.548;9.730;2023-07-09T02:07:17;5.10;;;3.70;;
16735;SDS011;17990;49.548;9.730;2023-07-09T02:09:47;5.33;;;3.90;;
16735;SDS011;17990;49.548;9.730;2023-07-09T02:12:17;5.37;;;3.90;;
16735;SDS011;17990;49.548;9.730;2023-07-09T02:14:45;6.70;;;3.90;;
16735;SDS011;17990;49.548;9.730;2023-07-09T02:17:13;7.90;;;3.80;;
16735;SDS011;17990;49.548;9.730;2023-07-09T02:19:41;8.03;;;4.20;;
16735;SDS011;17990;49.548;9.730;2023-07-09T02:22:08;5.47;;;3.83;;
16735;SDS011;17990;49.548;9.730;2023-07-09T02:24:36;6.60;;;4.10;;
16735;SDS011;17990;49.548;9.730;2023-07-09T02:27:07;9.43;;;3.80;;
16735;SDS011;17990;49.548;9.730;2023-07-09T02:29:36;7.50;;;3.77;;
16735;SDS011;17990;49.548;9.730;2023-07-09T02:32:04;7.70;;;3.67;;
16735;SDS011;17990;49.548;9.730;2023-07-09T02:34:31;6.90;;;3.73;;
16735;SDS011;17990;49.548;9.730;2023-07-09T02:37:00;6.20;;;4.07;;
16735;SDS011;17990;49.548;9.730;2023-07-09T02:39:28;4.90;;;3.70;;
16735;SDS011;17990;49.548;9.730;2023-07-09T02:41:54;6.93;;;3.70;;
16735;SDS011;17990;49.548;9.730;2023-07-09T02:44:23;5.43;;;3.97;;
16735;SDS011;17990;49.548;9.730;2023-07-09T02:46:49;8.90;;;3.80;;
16735;SDS011;17990;49.548;9.730;2023-07-09T02:49:18;6.77;;;4.40;;
16735;SDS011;17990;49.548;9.730;2023-07-09T02:51:45;10.47;;;3.87;;
16735;SDS011;17990;49.548;9.730;2023-07-09T02:54:11;5.73;;;3.73;;
16735;SDS011;17990;49.548;9.730;2023-07-09T02:56:38;6.87;;;3.77;;
16735;SDS011;17990;49.548;9.730;2023-07-09T02:59:05;6.50;;;3.97;;
16735;SDS011;17990;49.548;9.730;2023-07-09T03:01:33;8.30;;;4.20;;
16735;SDS011;17990;49.548;9.730;2023-07-09T03:04:00;5.27;;;3.83;;
16735;SDS011;17990;49.548;9.730;2023-07-09T03:06:29;6.50;;;3.87;;
16735;SDS011;17990;49.548;9.730;2023-07-09T03:08:59;7.73;;;3.80;;
16735;SDS011;17990;49.548;9.730;2023-07-09T03:11:27;7.27;;;3.90;;
16735;SDS011;17990;49.548;9.730;2023-07-09T03:13:56;7.03;;;3.93;;
16735;SDS011;17990;49.548;9.730;2023-07-09T03:16:25;7.13;;;4.00;;
16735;SDS011;17990;49.548;9.730;2023-07-09T03:18:54;4.83;;;3.57;;
16735;SDS011;17990;49.548;9.730;2023-07-09T03:21:22;6.47;;;3.53;;
16735;SDS011;17990;49.548;9.730;2023-07-09T03:23:50;7.33;;;4.40;;
16735;SDS011;17990;49.548;9.730;2023-07-09T03:26:18;6.37;;;3.27;;
16735;SDS011;17990;49.548;9.730;2023-07-09T03:28:45;5.87;;;3.77;;
16735;SDS011;17990;49.548;9.730;2023-07-09T03:31:12;10.47;;;3.77;;
16735;SDS011;17990;49.548;9.730;2023-07-09T03:33:39;8.47;;;3.97;;
16735;SDS011;17990;49.548;9.730;2023-07-09T03:36:08;7.50;;;3.93;;
16735;SDS011;17990;49.548;9.730;2023-07-09T03:38:34;5.07;;;3.87;;
16735;SDS011;17990;49.548;9.730;2023-07-09T03:41:01;4.60;;;3.43;;
16735;SDS011;17990;49.548;9.730;2023-07-09T03:43:28;5.63;;;3.83;;
16735;SDS011;17990;49.548;9.730;2023-07-09T03:45:55;7.37;;;4.40;;
16735;SDS011;17990;49.548;9.730;2023-07-09T03:48:22;6.33;;;3.90;;
16735;SDS011;17990;49.548;9.730;2023-07-09T03:50:49;5.53;;;3.50;;
16735;SDS011;17990;49.548;9.730;2023-07-09T03:53:18;6.33;;;3.57;;
16735;SDS011;17990;49.548;9.730;2023-07-09T03:55:45;4.67;;;3.73;;
16735;SDS011;17990;49.548;9.730;2023-07-09T03:58:12;5.23;;;3.23;;
16735;SDS011;17990;49.548;9.730;2023-07-09T04:00:39;6.33;;;3.57;;
16735;SDS011;17990;49.548;9.730;2023-07-09T04:03:06;5.80;;;3.10;;
16735;SDS011;17990;49.548;9.730;2023-07-09T04:05:35;4.70;;;3.40;;
16735;SDS011;17990;49.548;9.730;2023-07-09T04:08:02;6.80;;;3.57;;
16735;SDS011;17990;49.548;9.730;2023-07-09T04:10:31;10.23;;;3.80;;
16735;SDS011;17990;49.548;9.730;2023-07-09T04:12:58;5.87;;;4.00;;
16735;SDS011;17990;49.548;9.730;2023-07-09T04:15:26;5.30;;;3.67;;
16735;SDS011;17990;49.548;9.730;2023-07-09T04:17:53;5.83;;;3.77;;
16735;SDS011;17990;49.548;9.730;2023-07-09T04:20:20;4.40;;;3.10;;
16735;SDS011;17990;49.548;9.730;2023-07-09T04:22:47;7.17;;;3.93;;
16735;SDS011;17990;49.548;9.730;2023-07-09T04:25:14;6.53;;;4.10;;
16735;SDS011;17990;49.548;9.730;2023-07-09T04:27:43;5.90;;;3.60;;
16735;SDS011;17990;49.548;9.730;2023-07-09T04:30:11;5.03;;;3.30;;
16735;SDS011;17990;49.548;9.730;2023-07-09T04:32:40;5.47;;;3.60;;
16735;SDS011;17990;49.548;9.730;2023-07-09T04:35:09;6.40;;;3.60;;
16735;SDS011;17990;49.548;9.730;2023-07-09T04:37:37;5.73;;;3.60;;
16735;SDS011;17990;49.548;9.730;2023-07-09T04:40:06;7.80;;;3.47;;
16735;SDS011;17990;49.548;9.730;2023-07-09T04:42:35;6.53;;;3.90;;
16735;SDS011;17990;49.548;9.730;2023-07-09T04:45:06;5.40;;;3.93;;
16735;SDS011;17990;49.548;9.730;2023-07-09T04:47:36;7.23;;;4.17;;
16735;SDS011;17990;49.548;9.730;2023-07-09T04:50:04;5.67;;;3.73;;
16735;SDS011;17990;49.548;9.730;2023-07-09T04:52:33;5.90;;;4.00;;
16735;SDS011;17990;49.548;9.730;2023-07-09T04:55:00;6.07;;;3.90;;
16735;SDS011;17990;49.548;9.730;2023-07-09T04:57:27;5.20;;;3.30;;
16735;SDS011;17990;49.548;9.730;2023-07-09T04:59:54;7.03;;;3.57;;
16735;SDS011;17990;49.548;9.730;2023-07-09T05:02:23;5.80;;;3.60;;
16735;SDS011;17990;49.548;9.730;2023-07-09T05:04:50;4.83;;;3.50;;
16735;SDS011;17990;49.548;9.730;2023-07-09T05:07:17;6.53;;;3.70;;
16735;SDS011;17990;49.548;9.730;2023-07-09T05:09:44;5.97;;;3.67;;
16735;SDS011;17990;49.548;9.730;2023-07-09T05:12:12;6.87;;;3.47;;
16735;SDS011;17990;49.548;9.730;2023-07-09T05:14:39;8.83;;;3.73;;
16735;SDS011;17990;49.548;9.730;2023-07-09T05:17:06;7.40;;;3.73;;
16735;SDS011;17990;49.548;9.730;2023-07-09T05:19:35;7.13;;;3.53;;
16735;SDS011;17990;49.548;9.730;2023-07-09T05:22:02;4.83;;;3.30;;
16735;SDS011;17990;49.548;9.730;2023-07-09T05:24:30;6.00;;;3.93;;
16735;SDS011;17990;49.548;9.730;2023-07-09T05:26:57;5.55;;;4.30;;
16735;SDS011;17990;49.548;9.730;2023-07-09T05:29:24;8.88;;;3.80;;
16735;SDS011;17990;49.548;9.730;2023-07-09T05:31:51;7.15;;;4.07;;
16735;SDS011;17990;49.548;9.730;2023-07-09T05:34:18;6.25;;;3.58;;
16735;SDS011;17990;49.548;9.730;2023-07-09T05:36:47;5.93;;;4.00;;
16735;SDS011;17990;49.548;9.730;2023-07-09T05:39:14;5.72;;;3.67;;
16735;SDS011;17990;49.548;9.730;2023-07-09T05:41:41;6.40;;;4.00;;
16735;SDS011;17990;49.548;9.730;2023-07-09T05:44:08;6.35;;;3.90;;
16735;SDS011;17990;49.548;9.730;2023-07-09T05:46:35;7.25;;;3.97;;
16735;SDS011;17990;49.548;9.730;2023-07-09T05:49:03;6.00;;;4.03;;
16735;SDS011;17990;49.548;9.730;2023-07-09T05:51:31;5.95;;;4.05;;
16735;SDS011;17990;49.548;9.730;2023-07-09T05:54:00;6.63;;;4.15;;
16735;SDS011;17990;49.548;9.730;2023-07-09T05:56:27;6.07;;;3.70;;
16735;SDS011;17990;49.548;9.730;2023-07-09T05:58:54;8.02;;;3.97;;
16735;SDS011;17990;49.548;9.730;2023-07-09T06:01:22;7.63;;;4.20;;
16735;SDS011;17990;49.548;9.730;2023-07-09T06:03:49;6.10;;;3.85;;
16735;SDS011;17990;49.548;9.730;2023-07-09T06:06:16;6.28;;;3.95;;
16735;SDS011;17990;49.548;9.730;2023-07-09T06:08:43;4.95;;;4.18;;
16735;SDS011;17990;49.548;9.730;2023-07-09T06:11:12;5.82;;;4.30;;
16735;SDS011;17990;49.548;9.730;2023-07-09T06:13:39;4.85;;;4.30;;
16735;SDS011;17990;49.548;9.730;2023-07-09T06:16:06;5.35;;;4.00;;
16735;SDS011;17990;49.548;9.730;2023-07-09T06:18:33;6.00;;;4.10;;
16735;SDS011;17990;49.548;9.730;2023-07-09T06:21:01;8.30;;;3.78;;
16735;SDS011;17990;49.548;9.730;2023-07-09T06:23:29;5.68;;;3.63;;
16735;SDS011;17990;49.548;9.730;2023-07-09T06:25:57;8.10;;;3.70;;
16735;SDS011;17990;49.548;9.730;2023-07-09T06:28:27;6.32;;;3.83;;
16735;SDS011;17990;49.548;9.730;2023-07-09T06:30:55;5.80;;;4.05;;
16735;SDS011;17990;49.548;9.730;2023-07-09T06:33:22;4.97;;;3.72;;
16735;SDS011;17990;49.548;9.730;2023-07-09T06:35:52;4.85;;;3.65;;
16735;SDS011;17990;49.548;9.730;2023-07-09T06:38:24;6.57;;;3.70;;
16735;SDS011;17990;49.548;9.730;2023-07-09T06:40:51;5.50;;;3.65;;
16735;SDS011;17990;49.548;9.730;2023-07-09T06:43:19;5.45;;;3.70;;
16735;SDS011;17990;49.548;9.730;2023-07-09T06:45:54;4.97;;;3.50;;
16735;SDS011;17990;49.548;9.730;2023-07-09T06:48:23;5.57;;;3.33;;
16735;SDS011;17990;49.548;9.730;2023-07-09T06:50:52;4.55;;;3.72;;
16735;SDS011;17990;49.548;9.730;2023-07-09T06:53:21;5.25;;;3.70;;
16735;SDS011;17990;49.548;9.730;2023-07-09T06:55:48;5.03;;;3.80;;
16735;SDS011;17990;49.548;9.730;2023-07-09T06:58:18;6.13;;;3.50;;
16735;SDS011;17990;49.548;9.730;2023-07-09T07:00:45;4.32;;;3.92;;
16735;SDS011;17990;49.548;9.730;2023-07-09T07:03:16;5.50;;;4.07;;
16735;SDS011;17990;49.548;9.730;2023-07-09T07:05:43;4.10;;;3.63;;
16735;SDS011;17990;49.548;9.730;2023-07-09T07:08:12;5.82;;;4.05;;
16735;SDS011;17990;49.548;9.730;2023-07-09T07:10:41;4.55;;;3.78;;
16735;SDS011;17990;49.548;9.730;2023-07-09T07:13:08;4.78;;;3.75;;
16735;SDS011;17990;49.548;9.730;2023-07-09T07:15:36;5.60;;;3.78;;
16735;SDS011;17990;49.548;9.730;2023-07-09T07:18:04;5.10;;;3.42;;
16735;SDS011;17990;49.548;9.730;2023-07-09T07:20:32;4.45;;;3.50;;
16735;SDS011;17990;49.548;9.730;2023-07-09T07:23:00;7.38;;;3.60;;
16735;SDS011;17990;49.548;9.730;2023-07-09T07:25:27;5.38;;;3.25;;
16735;SDS011;17990;49.548;9.730;2023-07-09T07:27:55;4.53;;;3.28;;
16735;SDS011;17990;49.548;9.730;2023-07-09T07:30:22;6.93;;;3.50;;
16735;SDS011;17990;49.548;9.730;2023-07-09T07:32:49;3.83;;;3.33;;
16735;SDS011;17990;49.548;9.730;2023-07-09T07:35:16;8.20;;;3.80;;
16735;SDS011;17990;49.548;9.730;2023-07-09T07:37:45;6.25;;;3.45;;
16735;SDS011;17990;49.548;9.730;2023-07-09T07:40:12;3.53;;;3.17;;
16735;SDS011;17990;49.548;9.730;2023-07-09T07:42:39;5.68;;;3.55;;
16735;SDS011;17990;49.548;9.730;2023-07-09T07:45:06;4.47;;;3.47;;
16735;SDS011;17990;49.548;9.730;2023-07-09T07:47:34;5.07;;;3.58;;
16735;SDS011;17990;49.548;9.730;2023-07-09T07:50:02;5.13;;;3.95;;
16735;SDS011;17990;49.548;9.730;2023-07-09T07:52:29;5.57;;;3.47;;
16735;SDS011;17990;49.548;9.730;2023-07-09T07:54:57;6.40;;;3.65;;
16735;SDS011;17990;49.548;9.730;2023-07-09T07:57:25;6.85;;;3.17;;
16735;SDS011;17990;49.548;9.730;2023-07-09T07:59:52;8.07;;;3.40;;
16735;SDS011;17990;49.548;9.730;2023-07-09T08:02:19;6.63;;;3.45;;
16735;SDS011;17990;49.548;9.730;2023-07-09T08:04:46;6.60;;;3.60;;
16735;SDS011;17990;49.548;9.730;2023-07-09T08:07:13;6.40;;;3.30;;
16735;SDS011;17990;49.548;9.730;2023-07-09T08:09:40;5.40;;;3.17;;
16735;SDS011;17990;49.548;9.730;2023-07-09T08:12:09;6.03;;;3.45;;
16735;SDS011;17990;49.548;9.730;2023-07-09T08:14:38;8.63;;;4.05;;
16735;SDS011;17990;49.548;9.730;2023-07-09T08:17:06;6.38;;;3.40;;
16735;SDS011;17990;49.548;9.730;2023-07-09T08:19:43;5.13;;;3.30;;
16735;SDS011;17990;49.548;9.730;2023-07-09T08:22:12;6.40;;;2.92;;
16735;SDS011;17990;49.548;9.730;2023-07-09T08:24:39;4.70;;;3.30;;
16735;SDS011;17990;49.548;9.730;2023-07-09T08:27:07;3.65;;;3.35;;
16735;SDS011;17990;49.548;9.730;2023-07-09T08:29:35;6.60;;;3.58;;
16735;SDS011;17990;49.548;9.730;2023-07-09T08:32:02;4.88;;;3.08;;
16735;SDS011;17990;49.548;9.730;2023-07-09T08:34:30;4.55;;;3.25;;
16735;SDS011;17990;49.548;9.730;2023-07-09T08:36:58;5.22;;;3.00;;
16735;SDS011;17990;49.548;9.730;2023-07-09T08:39:25;4.05;;;3.40;;
16735;SDS011;17990;49.548;9.730;2023-07-09T08:41:53;5.10;;;3.58;;
16735;SDS011;17990;49.548;9.730;2023-07-09T08:44:38;4.72;;;2.95;;
16735;SDS011;17990;49.548;9.730;2023-07-09T08:47:28;8.90;;;3.10;;
16735;SDS011;17990;49.548;9.730;2023-07-09T08:50:05;4.28;;;2.60;;
16735;SDS011;17990;49.548;9.730;2023-07-09T08:52:38;3.97;;;3.08;;
16735;SDS011;17990;49.548;9.730;2023-07-09T08:55:08;5.93;;;3.20;;
16735;SDS011;17990;49.548;9.730;2023-07-09T08:57:39;5.50;;;2.63;;
16735;SDS011;17990;49.548;9.730;2023-07-09T09:00:15;4.85;;;2.83;;
16735;SDS011;17990;49.548;9.730;2023-07-09T09:02:46;3.47;;;2.63;;
16735;SDS011;17990;49.548;9.730;2023-07-09T09:05:19;4.45;;;2.83;;
16735;SDS011;17990;49.548;9.730;2023-07-09T09:07:50;6.18;;;2.83;;
16735;SDS011;17990;49.548;9.730;2023-07-09T09:10:23;6.32;;;3.08;;
16735;SDS011;17990;49.548;9.730;2023-07-09T09:13:10;4.20;;;2.50;;
16735;SDS011;17990;49.548;9.730;2023-07-09T09:15:42;4.72;;;2.85;;
16735;SDS011;17990;49.548;9.730;2023-07-09T09:18:21;5.50;;;2.85;;
16735;SDS011;17990;49.548;9.730;2023-07-09T09:20:55;6.07;;;2.72;;
16735;SDS011;17990;49.548;9.730;2023-07-09T09:23:25;6.03;;;3.00;;
16735;SDS011;17990;49.548;9.730;2023-07-09T09:26:02;6.47;;;2.70;;
16735;SDS011;17990;49.548;9.730;2023-07-09T09:28:41;6.68;;;2.95;;
16735;SDS011;17990;49.548;9.730;2023-07-09T09:31:11;6.28;;;2.88;;
16735;SDS011;17990;49.548;9.730;2023-07-09T09:33:40;3.40;;;2.85;;
16735;SDS011;17990;49.548;9.730;2023-07-09T09:36:11;7.45;;;2.92;;
16735;SDS011;17990;49.548;9.730;2023-07-09T09:38:43;4.93;;;3.17;;
16735;SDS011;17990;49.548;9.730;2023-07-09T09:41:14;5.30;;;2.78;;
16735;SDS011;17990;49.548;9.730;2023-07-09T09:43:43;7.35;;;3.13;;
16735;SDS011;17990;49.548;9.730;2023-07-09T09:46:18;5.85;;;3.17;;
16735;SDS011;17990;49.548;9.730;2023-07-09T09:48:50;3.75;;;2.97;;
16735;SDS011;17990;49.548;9.730;2023-07-09T09:51:20;3.40;;;2.78;;
16735;SDS011;17990;49.548;9.730;2023-07-09T09:53:50;6.35;;;2.45;;
16735;SDS011;17990;49.548;9.730;2023-07-09T09:56:25;4.85;;;3.13;;
16735;SDS011;17990;49.548;9.730;2023-07-09T09:58:54;4.47;;;2.80;;
16735;SDS011;17990;49.548;9.730;2023-07-09T10:01:27;5.35;;;2.88;;
16735;SDS011;17990;49.548;9.730;2023-07-09T10:03:57;6.53;;;2.60;;
16735;SDS011;17990;49.548;9.730;2023-07-09T10:06:28;5.28;;;2.70;;
16735;SDS011;17990;49.548;9.730;2023-07-09T10:09:02;5.20;;;2.72;;
16735;SDS011;17990;49.548;9.730;2023-07-09T10:11:46;3.75;;;2.63;;
16735;SDS011;17990;49.548;9.730;2023-07-09T10:14:22;5.72;;;2.65;;
16735;SDS011;17990;49.548;9.730;2023-07-09T10:17:04;4.47;;;2.85;;
16735;SDS011;17990;49.548;9.730;2023-07-09T10:19:43;5.72;;;3.15;;
16735;SDS011;17990;49.548;9.730;2023-07-09T10:22:21;7.03;;;2.92;;
16735;SDS011;17990;49.548;9.730;2023-07-09T10:25:07;6.05;;;2.72;;
16735;SDS011;17990;49.548;9.730;2023-07-09T10:27:48;6.38;;;2.90;;
16735;SDS011;17990;49.548;9.730;2023-07-09T10:30:42;3.92;;;2.72;;
16735;SDS011;17990;49.548;9.730;2023-07-09T10:33:21;4.47;;;2.97;;
16735;SDS011;17990;49.548;9.730;2023-07-09T10:35:54;4.63;;;2.90;;
16735;SDS011;17990;49.548;9.730;2023-07-09T10:38:36;5.28;;;3.05;;
16735;SDS011;17990;49.548;9.730;2023-07-09T10:41:11;4.45;;;2.72;;
16735;SDS011;17990;49.548;9.730;2023-07-09T10:43:41;7.00;;;2.90;;
16735;SDS011;17990;49.548;9.730;2023-07-09T10:46:15;4.05;;;2.80;;
16735;SDS011;17990;49.548;9.730;2023-07-09T10:48:48;5.30;;;2.80;;
16735;SDS011;17990;49.548;9.730;2023-07-09T10:51:20;5.43;;;3.20;;
16735;SDS011;17990;49.548;9.730;2023-07-09T10:53:55;3.67;;;2.80;;
16735;SDS011;17990;49.548;9.730;2023-07-09T10:56:25;7.07;;;2.88;;
16735;SDS011;17990;49.548;9.730;2023-07-09T10:58:56;5.50;;;2.97;;
16735;SDS011;17990;49.548;9.730;2023-07-09T11:01:37;4.57;;;3.00;;
16735;SDS011;17990;49.548;9.730;2023-07-09T11:04:10;4.72;;;2.92;;
16735;SDS011;17990;49.548;9.730;2023-07-09T11:06:53;3.40;;;2.88;;
16735;SDS011;17990;49.548;9.730;2023-07-09T11:09:25;5.70;;;2.95;;
16735;SDS011;17990;49.548;9.730;2023-07-09T11:11:57;5.00;;;2.90;;
16735;SDS011;17990;49.548;9.730;2023-07-09T11:14:30;4.47;;;3.00;;
16735;SDS011;17990;49.548;9.730;2023-07-09T11:17:03;4.35;;;2.95;;
16735;SDS011;17990;49.548;9.730;2023-07-09T11:19:40;3.78;;;2.50;;
16735;SDS011;17990;49.548;9.730;2023-07-09T11:22:14;4.43;;;2.75;;
16735;SDS011;17990;49.548;9.730;2023-07-09T11:24:46;4.70;;;2.97;;
16735;SDS011;17990;49.548;9.730;2023-07-09T11:27:17;3.65;;;2.70;;
16735;SDS011;17990;49.548;9.730;2023-07-09T11:29:47;6.03;;;2.90;;
16735;SDS011;17990;49.548;9.730;2023-07-09T11:32:23;4.18;;;2.83;;
16735;SDS011;17990;49.548;9.730;2023-07-09T11:34:52;5.32;;;2.85;;
16735;SDS011;17990;49.548;9.730;2023-07-09T11:37:20;5.55;;;2.92;;
16735;SDS011;17990;49.548;9.730;2023-07-09T11:39:52;5.40;;;2.72;;
16735;SDS011;17990;49.548;9.730;2023-07-09T11:42:29;5.55;;;3.03;;
16735;SDS011;17990;49.548;9.730;2023-07-09T11:45:00;5.95;;;3.00;;
16735;SDS011;17990;49.548;9.730;2023-07-09T11:47:37;3.55;;;2.38;;
16735;SDS011;17990;49.548;9.730;2023-07-09T11:50:13;3.63;;;2.90;;
16735;SDS011;17990;49.548;9.730;2023-07-09T11:52:50;4.05;;;2.70;;
16735;SDS011;17990;49.548;9.730;2023-07-09T11:55:24;5.65;;;3.00;;
16735;SDS011;17990;49.548;9.730;2023-07-09T11:57:54;4.93;;;3.15;;
16735;SDS011;17990;49.548;9.730;2023-07-09T12:00:24;4.05;;;2.55;;
16735;SDS011;17990;49.548;9.730;2023-07-09T12:02:54;5.72;;;3.00;;
16735;SDS011;17990;49.548;9.730;2023-07-09T12:05:26;7.55;;;3.10;;
16735;SDS011;17990;49.548;9.730;2023-07-09T12:07:55;6.47;;;2.90;;
16735;SDS011;17990;49.548;9.730;2023-07-09T12:10:25;6.22;;;2.80;;
16735;SDS011;17990;49.548;9.730;2023-07-09T12:12:55;4.75;;;2.83;;
16735;SDS011;17990;49.548;9.730;2023-07-09T12:15:24;4.50;;;2.83;;
16735;SDS011;17990;49.548;9.730;2023-07-09T12:17:54;5.72;;;3.70;;
16735;SDS011;17990;49.548;9.730;2023-07-09T12:20:23;6.40;;;3.03;;
16735;SDS011;17990;49.548;9.730;2023-07-09T12:22:56;4.40;;;2.67;;
16735;SDS011;17990;49.548;9.730;2023-07-09T12:25:25;4.38;;;2.70;;
16735;SDS011;17990;49.548;9.730;2023-07-09T12:27:54;6.68;;;3.17;;
16735;SDS011;17990;49.548;9.730;2023-07-09T12:30:23;6.18;;;3.08;;
16735;SDS011;17990;49.548;9.730;2023-07-09T12:32:50;5.70;;;3.10;;
16735;SDS011;17990;49.548;9.730;2023-07-09T12:35:18;5.18;;;2.97;;
16735;SDS011;17990;49.548;9.730;2023-07-09T12:37:48;4.88;;;3.10;;
16735;SDS011;17990;49.548;9.730;2023-07-09T12:40:20;4.57;;;2.72;;
16735;SDS011;17990;49.548;9.730;2023-07-09T12:42:48;3.95;;;2.97;;
16735;SDS011;17990;49.548;9.730;2023-07-09T12:45:17;5.72;;;2.95;;
16735;SDS011;17990;49.548;9.730;2023-07-09T12:47:46;4.18;;;2.80;;
16735;SDS011;17990;49.548;9.730;2023-07-09T12:50:19;6.40;;;2.95;;
16735;SDS011;17990;49.548;9.730;2023-07-09T12:52:56;7.47;;;3.00;;
16735;SDS011;17990;49.548;9.730;2023-07-09T12:55:28;6.03;;;3.08;;
16735;SDS011;17990;49.548;9.730;2023-07-09T12:58:01;4.38;;;3.15;;
16735;SDS011;17990;49.548;9.730;2023-07-09T13:00:29;4.20;;;2.70;;
16735;SDS011;17990;49.548;9.730;2023-07-09T13:02:57;4.43;;;2.67;;
16735;SDS011;17990;49.548;9.730;2023-07-09T13:05:25;4.43;;;3.10;;
16735;SDS011;17990;49.548;9.730;2023-07-09T13:07:54;4.85;;;2.80;;
16735;SDS011;17990;49.548;9.730;2023-07-09T13:10:26;4.40;;;2.80;;
16735;SDS011;17990;49.548;9.730;2023-07-09T13:12:55;5.50;;;2.97;;
16735;SDS011;17990;49.548;9.730;2023-07-09T13:15:27;4.97;;;2.92;;
16735;SDS011;17990;49.548;9.730;2023-07-09T13:18:05;4.35;;;3.05;;
16735;SDS011;17990;49.548;9.730;2023-07-09T13:20:37;7.18;;;3.05;;
16735;SDS011;17990;49.548;9.730;2023-07-09T13:23:10;5.10;;;3.10;;
16735;SDS011;17990;49.548;9.730;2023-07-09T13:25:39;6.15;;;2.83;;
16735;SDS011;17990;49.548;9.730;2023-07-09T13:28:10;4.38;;;2.92;;
16735;SDS011;17990;49.548;9.730;2023-07-09T13:30:45;5.88;;;3.30;;
16735;SDS011;17990;49.548;9.730;2023-07-09T13:33:13;5.53;;;3.10;;
16735;SDS011;17990;49.548;9.730;2023-07-09T13:35:40;7.65;;;2.97;;
16735;SDS011;17990;49.548;9.730;2023-07-09T13:38:13;5.28;;;3.20;;
16735;SDS011;17990;49.548;9.730;2023-07-09T13:40:41;5.38;;;2.97;;
16735;SDS011;17990;49.548;9.730;2023-07-09T13:43:11;7.57;;;3.00;;
16735;SDS011;17990;49.548;9.730;2023-07-09T13:45:39;5.10;;;2.65;;
16735;SDS011;17990;49.548;9.730;2023-07-09T13:48:09;5.00;;;2.97;;
16735;SDS011;17990;49.548;9.730;2023-07-09T13:50:41;5.85;;;3.53;;
16735;SDS011;17990;49.548;9.730;2023-07-09T13:53:18;5.65;;;3.00;;
16735;SDS011;17990;49.548;9.730;2023-07-09T13:55:48;6.57;;;3.17;;
16735;SDS011;17990;49.548;9.730;2023-07-09T13:58:16;6.13;;;3.08;;
16735;SDS011;17990;49.548;9.730;2023-07-09T14:00:47;4.45;;;2.78;;
16735;SDS011;17990;49.548;9.730;2023-07-09T14:03:17;4.85;;;3.10;;
16735;SDS011;17990;49.548;9.730;2023-07-09T14:05:47;6.38;;;3.20;;
16735;SDS011;17990;49.548;9.730;2023-07-09T14:08:16;3.80;;;3.05;;
16735;SDS011;17990;49.548;9.730;2023-07-09T14:10:45;5.97;;;2.97;;
16735;SDS011;17990;49.548;9.730;2023-07-09T14:13:13;7.10;;;3.10;;
16735;SDS011;17990;49.548;9.730;2023-07-09T14:15:42;7.07;;;3.30;;
16735;SDS011;17990;49.548;9.730;2023-07-09T14:18:10;4.75;;;2.88;;
16735;SDS011;17990;49.548;9.730;2023-07-09T14:20:39;5.15;;;2.75;;
16735;SDS011;17990;49.548;9.730;2023-07-09T14:23:08;4.47;;;3.00;;
16735;SDS011;17990;49.548;9.730;2023-07-09T14:25:38;7.32;;;3.10;;
16735;SDS011;17990;49.548;9.730;2023-07-09T14:28:08;6.00;;;2.90;;
16735;SDS011;17990;49.548;9.730;2023-07-09T14:30:39;5.90;;;3.00;;
16735;SDS011;17990;49.548;9.730;2023-07-09T14:33:09;7.60;;;3.55;;
16735;SDS011;17990;49.548;9.730;2023-07-09T14:35:40;5.72;;;2.83;;
16735;SDS011;17990;49.548;9.730;2023-07-09T14:38:12;6.10;;;2.97;;
16735;SDS011;17990;49.548;9.730;2023-07-09T14:40:45;5.50;;;3.00;;
16735;SDS011;17990;49.548;9.730;2023-07-09T14:43:15;7.80;;;2.95;;
16735;SDS011;17990;49.548;9.730;2023-07-09T14:45:42;5.18;;;3.05;;
16735;SDS011;17990;49.548;9.730;2023-07-09T14:48:10;3.80;;;2.83;;
16735;SDS011;17990;49.548;9.730;2023-07-09T14:50:38;5.25;;;3.00;;
16735;SDS011;17990;49.548;9.730;2023-07-09T14:53:09;3.30;;;2.50;;
16735;SDS011;17990;49.548;9.730;2023-07-09T14:55:40;4.40;;;2.90;;
16735;SDS011;17990;49.548;9.730;2023-07-09T14:58:14;6.80;;;3.08;;
16735;SDS011;17990;49.548;9.730;2023-07-09T15:00:42;6.10;;;2.97;;
16735;SDS011;17990;49.548;9.730;2023-07-09T15:03:17;6.38;;;3.10;;
16735;SDS011;17990;49.548;9.730;2023-07-09T15:05:47;4.80;;;3.17;;
16735;SDS011;17990;49.548;9.730;2023-07-09T15:08:14;6.28;;;3.03;;